Time;durP1;ratioP1;P1;durP2;ratioP2;P2;SDS_P1;SDS_P2;PMS_P1;PMS_P2;Temp;Humidity;BMP_temperature;BMP_pressure;BME280_temperature;BME280_humidity;BME280_pressure;Samples;Min_cycle;Max_cycle;Signal;HPM_P1;HPM_P2
2022/11/29 00:01:04;;;;;;;27.93;22.93;;;7.60;99.90;;;;;;5053014;28;20467;-68
2022/11/29 00:03:32;;;;;;;27.77;24.87;;;7.70;99.90;;;;;;5059220;28;20478;-70
2022/11/29 00:06:06;;;;;;;31.50;24.50;;;7.80;99.90;;;;;;5056901;28;20827;-72
2022/11/29 00:08:33;;;;;;;30.77;24.17;;;7.80;99.90;;;;;;5059859;28;20457;-69
2022/11/29 00:11:04;;;;;;;25.40;22.67;;;7.90;99.90;;;;;;5057047;28;20962;-69
2022/11/29 00:13:32;;;;;;;25.67;23.27;;;7.90;99.90;;;;;;5059154;28;20492;-71
2022/11/29 00:16:02;;;;;;;36.23;24.20;;;7.90;99.90;;;;;;5056493;28;20467;-71
2022/11/29 00:18:31;;;;;;;25.53;22.30;;;8.10;99.90;;;;;;5060971;28;20575;-71
2022/11/29 00:20:58;;;;;;;26.37;22.93;;;8.00;99.90;;;;;;5060837;28;20546;-69
2022/11/29 00:23:28;;;;;;;27.57;24.63;;;8.10;99.90;;;;;;5059290;28;20470;-71
2022/11/29 00:26:02;;;;;;;34.27;22.60;;;7.90;99.90;;;;;;5056145;28;20463;-71
2022/11/29 00:28:28;;;;;;;31.43;23.87;;;7.80;99.90;;;;;;5062201;28;20463;-70
2022/11/29 00:30:55;;;;;;;23.33;21.33;;;7.90;99.90;;;;;;5056580;28;20814;-71
2022/11/29 00:33:22;;;;;;;25.40;22.73;;;7.90;99.90;;;;;;5054834;28;20455;-71
2022/11/29 00:35:49;;;;;;;25.63;22.10;;;7.90;99.90;;;;;;5062879;28;20840;-70
2022/11/29 00:38:17;;;;;;;33.20;21.60;;;7.90;99.90;;;;;;5055892;28;20468;-69
2022/11/29 00:40:51;;;;;;;26.47;24.10;;;7.90;99.90;;;;;;5057198;28;20459;-71
2022/11/29 00:43:17;;;;;;;27.50;23.33;;;7.90;99.90;;;;;;5057508;28;20464;-70
2022/11/29 00:45:45;;;;;;;23.60;21.10;;;7.90;99.90;;;;;;5057665;28;20472;-71
2022/11/29 00:48:12;;;;;;;24.40;22.00;;;7.90;99.90;;;;;;5057292;28;20556;-69
2022/11/29 00:50:39;;;;;;;32.03;23.23;;;7.90;99.90;;;;;;5056755;28;20467;-70
2022/11/29 00:53:06;;;;;;;25.43;23.03;;;7.90;99.90;;;;;;5053928;28;20466;-70
2022/11/29 00:55:33;;;;;;;24.20;21.63;;;8.00;99.90;;;;;;5057369;28;20521;-70
2022/11/29 00:58:02;;;;;;;25.20;22.50;;;8.00;99.90;;;;;;5062148;28;20469;-70
2022/11/29 01:00:29;;;;;;;29.20;22.23;;;8.00;99.90;;;;;;5053330;28;20462;-71
2022/11/29 01:02:57;;;;;;;32.60;21.80;;;8.00;99.90;;;;;;5064007;28;20464;-71
2022/11/29 01:05:24;;;;;;;25.00;22.60;;;8.00;99.90;;;;;;5048717;28;20487;-68
2022/11/29 01:07:51;;;;;;;31.27;22.53;;;8.10;99.90;;;;;;5051266;28;20470;-71
2022/11/29 01:10:18;;;;;;;30.03;22.80;;;8.10;99.90;;;;;;5051018;28;20478;-69
2022/11/29 01:12:44;;;;;;;24.33;21.77;;;8.10;99.90;;;;;;5056982;28;20460;-70
2022/11/29 01:15:13;;;;;;;29.33;21.77;;;8.10;99.90;;;;;;5056903;28;20481;-68
2022/11/29 01:17:41;;;;;;;28.77;22.30;;;7.90;99.90;;;;;;5058635;28;20460;-69
2022/11/29 01:20:10;;;;;;;27.00;22.10;;;7.90;99.90;;;;;;5054427;28;20543;-70
2022/11/29 01:22:38;;;;;;;25.03;21.57;;;8.00;99.90;;;;;;5055151;28;20468;-68
2022/11/29 01:25:07;;;;;;;26.83;21.00;;;8.00;99.90;;;;;;5058920;28;20472;-70
2022/11/29 01:27:34;;;;;;;25.00;21.03;;;8.00;99.90;;;;;;5054300;28;20466;-70
2022/11/29 01:30:01;;;;;;;25.30;21.87;;;7.90;99.90;;;;;;5058172;28;20474;-70
2022/11/29 01:32:30;;;;;;;31.13;21.63;;;7.80;99.90;;;;;;5056462;28;20808;-68
2022/11/29 01:34:57;;;;;;;26.97;20.57;;;7.70;99.90;;;;;;5059195;28;20495;-71
2022/11/29 01:37:24;;;;;;;31.40;22.37;;;7.80;99.90;;;;;;5058802;28;20469;-68
2022/11/29 01:39:51;;;;;;;28.47;22.07;;;7.70;99.90;;;;;;5058560;28;20536;-70
2022/11/29 01:42:18;;;;;;;25.83;22.97;;;7.70;99.90;;;;;;5053157;28;21080;-70
2022/11/29 01:45:06;;;;;;;40.20;23.33;;;7.70;99.90;;;;;;5055457;28;20465;-68
2022/11/29 01:47:42;;;;;;;25.77;22.90;;;7.80;99.90;;;;;;5054998;28;20519;-71
2022/11/29 01:50:09;;;;;;;25.50;22.60;;;7.80;99.90;;;;;;5055759;28;20466;-69
2022/11/29 01:52:36;;;;;;;25.27;22.83;;;7.90;99.90;;;;;;5053322;28;21133;-70
2022/11/29 01:55:07;;;;;;;34.40;23.27;;;7.90;99.90;;;;;;5057117;28;20507;-71
2022/11/29 01:57:37;;;;;;;29.77;23.70;;;8.00;99.90;;;;;;5060143;28;20466;-69
2022/11/29 02:00:10;;;;;;;34.80;25.93;;;8.00;99.90;;;;;;5051023;28;20493;-68
2022/11/29 02:02:42;;;;;;;26.30;21.37;;;8.10;99.90;;;;;;5060344;28;20474;-70
2022/11/29 02:05:12;;;;;;;37.53;23.47;;;8.10;99.90;;;;;;5058108;28;20832;-69
2022/11/29 02:07:41;;;;;;;39.80;22.33;;;8.20;99.90;;;;;;5059298;28;20510;-68
2022/11/29 02:10:09;;;;;;;37.93;22.73;;;8.20;99.90;;;;;;5054504;28;21019;-70
2022/11/29 02:12:46;;;;;;;33.73;22.60;;;8.30;99.90;;;;;;5058909;28;20484;-69
2022/11/29 02:15:29;;;;;;;22.97;20.57;;;8.30;99.90;;;;;;5052824;28;20490;-71
2022/11/29 02:18:06;;;;;;;34.80;22.03;;;8.30;99.90;;;;;;5052806;28;20465;-73
2022/11/29 02:20:55;;;;;;;24.50;21.97;;;8.30;99.90;;;;;;5060249;28;20470;-70
2022/11/29 02:23:55;;;;;;;35.47;21.90;;;8.30;99.90;;;;;;5057962;28;20832;-68
2022/11/29 02:26:43;;;;;;;34.77;22.40;;;8.30;99.90;;;;;;5056765;28;20472;-70
2022/11/29 02:29:31;;;;;;;30.20;22.40;;;8.30;99.90;;;;;;5054297;28;20489;-69
2022/11/29 02:32:42;;;;;;;33.87;23.40;;;8.40;99.90;;;;;;5057122;28;20538;-68
2022/11/29 02:35:21;;;;;;;35.67;24.10;;;8.40;99.90;;;;;;5052997;28;20490;-70
2022/11/29 02:38:04;;;;;;;33.83;23.20;;;8.40;99.90;;;;;;5050825;28;20464;-69
2022/11/29 02:40:51;;;;;;;38.13;23.87;;;8.40;99.90;;;;;;5055272;28;20466;-70
2022/11/29 02:43:40;;;;;;;38.23;24.23;;;8.40;99.90;;;;;;5055058;28;20490;-69
2022/11/29 02:46:23;;;;;;;50.33;25.57;;;8.40;99.90;;;;;;5056993;28;20473;-68
2022/11/29 02:49:01;;;;;;;42.97;23.90;;;8.30;99.90;;;;;;5057614;28;20873;-68
2022/11/29 02:51:35;;;;;;;53.27;25.50;;;8.40;99.90;;;;;;5060494;28;20558;-71
2022/11/29 02:54:09;;;;;;;37.00;25.50;;;8.30;99.90;;;;;;5056770;28;20489;-68
2022/11/29 02:56:43;;;;;;;59.77;26.20;;;8.20;99.90;;;;;;5061110;28;20476;-68
2022/11/29 02:59:14;;;;;;;49.47;28.27;;;8.20;99.90;;;;;;5059527;28;20962;-71
2022/11/29 03:01:51;;;;;;;49.40;28.20;;;8.20;99.90;;;;;;5065838;28;20885;-70
2022/11/29 03:04:26;;;;;;;54.07;28.20;;;8.20;99.90;;;;;;5062581;28;20985;-68
2022/11/29 03:07:01;;;;;;;64.50;28.90;;;8.20;99.90;;;;;;5057571;28;20462;-70
2022/11/29 03:09:36;;;;;;;50.30;28.13;;;8.20;99.90;;;;;;5060591;28;20536;-69
2022/11/29 03:12:16;;;;;;;63.77;27.60;;;8.10;99.90;;;;;;5052527;28;20459;-72
2022/11/29 03:14:54;;;;;;;65.50;30.10;;;8.20;99.90;;;;;;5057898;28;20485;-71
2022/11/29 03:17:31;;;;;;;67.03;29.30;;;8.10;99.90;;;;;;5060718;28;20466;-73
2022/11/29 03:20:13;;;;;;;73.27;28.10;;;8.10;99.90;;;;;;5062487;28;20455;-70
2022/11/29 03:22:48;;;;;;;79.30;31.50;;;8.20;99.90;;;;;;5060147;28;20951;-73
2022/11/29 03:25:22;;;;;;;90.90;32.07;;;8.00;99.90;;;;;;5060334;28;20470;-72
2022/11/29 03:27:55;;;;;;;76.93;28.60;;;8.20;99.90;;;;;;5060923;28;20752;-69
2022/11/29 03:30:23;;;;;;;76.33;29.47;;;8.20;99.90;;;;;;5059715;28;20466;-73
2022/11/29 03:32:57;;;;;;;71.27;31.47;;;8.30;99.90;;;;;;5062827;28;20455;-72
2022/11/29 03:35:34;;;;;;;70.50;31.70;;;8.30;99.90;;;;;;5056705;28;20501;-69
2022/11/29 03:38:14;;;;;;;68.10;29.80;;;8.30;99.90;;;;;;5065979;28;20510;-72
2022/11/29 03:40:48;;;;;;;73.20;29.07;;;8.30;99.90;;;;;;5057806;28;20469;-73
2022/11/29 03:43:19;;;;;;;87.03;31.00;;;8.30;99.90;;;;;;5062106;28;20459;-72
2022/11/29 03:45:53;;;;;;;83.47;29.57;;;8.20;99.90;;;;;;5059685;28;20468;-72
2022/11/29 03:48:27;;;;;;;88.73;30.20;;;8.10;99.90;;;;;;5057009;28;20554;-71
2022/11/29 03:50:59;;;;;;;95.13;31.23;;;8.10;99.90;;;;;;5060887;28;20454;-70
2022/11/29 03:53:33;;;;;;;70.47;29.97;;;8.10;99.90;;;;;;5059901;28;20462;-73
2022/11/29 03:56:02;;;;;;;74.63;29.60;;;8.20;99.90;;;;;;5050864;28;20490;-70
2022/11/29 03:58:46;;;;;;;78.00;28.83;;;8.30;99.90;;;;;;5053452;28;20460;-69
2022/11/29 04:01:45;;;;;;;79.33;29.43;;;8.30;99.90;;;;;;5059731;28;20494;-70
2022/11/29 04:04:44;;;;;;;93.17;27.90;;;8.40;99.90;;;;;;5054775;28;20471;-68
2022/11/29 04:07:32;;;;;;;83.77;27.93;;;8.50;99.90;;;;;;5055873;28;20464;-68
2022/11/29 04:10:16;;;;;;;77.93;29.40;;;8.60;99.90;;;;;;5058207;28;20453;-68
2022/11/29 04:13:16;;;;;;;108.47;28.13;;;8.60;99.90;;;;;;5049087;28;20466;-71
2022/11/29 04:16:23;;;;;;;67.67;29.77;;;8.60;99.90;;;;;;5057358;28;20487;-70
2022/11/29 04:19:28;;;;;;;70.60;29.47;;;8.50;99.90;;;;;;5063116;28;20458;-70
2022/11/29 04:22:14;;;;;;;64.90;29.23;;;8.50;99.90;;;;;;5052129;28;20472;-71
2022/11/29 04:25:05;;;;;;;64.17;29.00;;;8.50;99.90;;;;;;5061806;28;20533;-71
2022/11/29 04:27:42;;;;;;;56.60;28.03;;;8.50;99.90;;;;;;5060850;28;20465;-71
2022/11/29 04:30:18;;;;;;;77.37;28.37;;;8.40;99.90;;;;;;5058827;28;20458;-70
2022/11/29 04:33:13;;;;;;;76.33;28.40;;;8.30;99.90;;;;;;5062642;28;20470;-71
2022/11/29 04:36:01;;;;;;;70.60;28.93;;;8.40;99.90;;;;;;5052645;28;20568;-69
2022/11/29 04:38:51;;;;;;;70.17;29.03;;;8.50;99.90;;;;;;5056969;28;20462;-69
2022/11/29 04:41:41;;;;;;;79.73;28.50;;;8.50;99.90;;;;;;5054777;28;20465;-71
2022/11/29 04:44:40;;;;;;;71.70;31.27;;;8.50;99.90;;;;;;5055515;28;20987;-69
2022/11/29 04:47:33;;;;;;;73.13;27.83;;;8.60;99.90;;;;;;5052483;28;21092;-70
2022/11/29 04:50:11;;;;;;;59.87;28.07;;;8.60;99.90;;;;;;5050925;28;20463;-68
2022/11/29 04:52:59;;;;;;;60.20;27.40;;;8.60;99.90;;;;;;5055954;28;20465;-69
2022/11/29 04:55:39;;;;;;;60.07;28.57;;;8.70;99.90;;;;;;5051532;28;20490;-71
2022/11/29 04:58:15;;;;;;;83.27;30.47;;;8.70;99.90;;;;;;5052617;28;20565;-72
2022/11/29 05:00:50;;;;;;;56.90;29.77;;;8.50;99.90;;;;;;5059390;28;20479;-69
2022/11/29 05:03:31;;;;;;;66.07;32.13;;;8.50;99.90;;;;;;5058342;28;20455;-69
2022/11/29 05:06:07;;;;;;;83.10;33.07;;;8.50;99.90;;;;;;5056135;28;20487;-71
2022/11/29 05:08:45;;;;;;;99.57;32.20;;;8.50;99.90;;;;;;5047173;28;20868;-71
2022/11/29 05:11:20;;;;;;;100.97;35.80;;;8.50;99.90;;;;;;5048539;28;20474;-69
2022/11/29 05:13:54;;;;;;;84.20;32.57;;;8.50;99.90;;;;;;5052209;28;20793;-69
2022/11/29 05:16:40;;;;;;;86.30;34.20;;;8.60;99.90;;;;;;5056482;28;20485;-71
2022/11/29 05:19:35;;;;;;;97.37;36.50;;;8.60;99.90;;;;;;5048277;28;20873;-69
2022/11/29 05:22:13;;;;;;;119.17;33.50;;;8.60;99.90;;;;;;5051661;28;20467;-70
2022/11/29 05:24:52;;;;;;;89.30;35.73;;;8.70;99.90;;;;;;5061978;28;20463;-71
2022/11/29 05:27:26;;;;;;;84.53;32.70;;;8.60;99.90;;;;;;5059242;28;20882;-71
2022/11/29 05:29:59;;;;;;;88.13;34.73;;;8.50;99.90;;;;;;5060526;28;20545;-71
2022/11/29 05:32:31;;;;;;;99.43;34.43;;;8.60;99.90;;;;;;5058497;28;20486;-71
2022/11/29 05:35:47;;;;;;;84.93;35.10;;;8.70;99.90;;;;;;5057266;28;20459;-71
2022/11/29 05:38:39;;;;;;;86.47;35.03;;;8.60;99.90;;;;;;5037342;28;20458;-69
2022/11/29 05:41:19;;;;;;;109.73;33.40;;;8.60;99.90;;;;;;5050141;28;20459;-69
2022/11/29 05:43:54;;;;;;;107.57;34.00;;;8.60;99.90;;;;;;5059191;28;20459;-69
2022/11/29 05:46:29;;;;;;;74.37;33.03;;;8.70;99.90;;;;;;5051144;28;20475;-71
2022/11/29 05:49:05;;;;;;;98.37;34.40;;;8.70;99.90;;;;;;5059076;28;20585;-69
2022/11/29 05:51:41;;;;;;;91.67;34.17;;;8.70;99.90;;;;;;5054361;28;20954;-70
2022/11/29 05:54:21;;;;;;;90.10;34.73;;;8.80;99.90;;;;;;5057108;28;20465;-70
2022/11/29 05:56:55;;;;;;;90.20;33.97;;;8.90;99.90;;;;;;5055850;28;20497;-71
2022/11/29 05:59:26;;;;;;;88.50;33.43;;;8.80;99.90;;;;;;5058319;28;20458;-70
2022/11/29 06:02:03;;;;;;;123.07;37.97;;;8.90;99.90;;;;;;5052452;28;20469;-72
2022/11/29 06:04:48;;;;;;;99.57;34.40;;;8.60;99.90;;;;;;5052217;28;20486;-68
2022/11/29 06:07:23;;;;;;;130.80;34.77;;;8.50;99.90;;;;;;5055833;28;20467;-70
2022/11/29 06:09:54;;;;;;;81.90;32.90;;;8.50;99.90;;;;;;5056859;28;20464;-70
2022/11/29 06:12:23;;;;;;;84.70;34.30;;;8.70;99.90;;;;;;5057077;28;20466;-69
2022/11/29 06:15:12;;;;;;;74.93;32.93;;;8.70;99.90;;;;;;5056505;28;20471;-68
2022/11/29 06:17:54;;;;;;;86.03;36.00;;;8.70;99.90;;;;;;5053418;28;20458;-71
2022/11/29 06:21:02;;;;;;;90.97;34.97;;;8.70;99.90;;;;;;5053538;28;20462;-68
2022/11/29 06:23:49;;;;;;;97.13;35.00;;;8.70;99.90;;;;;;5014357;28;20808;-70
2022/11/29 06:26:32;;;;;;;95.97;33.37;;;8.60;99.90;;;;;;5056096;28;20507;-71
2022/11/29 06:29:17;;;;;;;95.27;32.80;;;8.70;99.90;;;;;;5055847;28;20462;-71
2022/11/29 06:31:50;;;;;;;92.97;33.30;;;8.70;99.90;;;;;;5059750;28;20599;-69
2022/11/29 06:34:26;;;;;;;89.17;33.53;;;8.70;99.90;;;;;;5062595;28;20735;-69
2022/11/29 06:36:58;;;;;;;96.53;33.60;;;8.70;99.90;;;;;;5066160;28;20980;-70
2022/11/29 06:39:25;;;;;;;86.47;35.07;;;8.70;99.90;;;;;;5062096;28;21045;-70
2022/11/29 06:41:52;;;;;;;80.47;34.67;;;8.70;99.90;;;;;;5059097;28;20486;-71
2022/11/29 06:44:20;;;;;;;73.17;32.13;;;8.60;99.90;;;;;;5059618;28;20475;-69
2022/11/29 06:46:51;;;;;;;96.20;36.60;;;8.60;99.90;;;;;;5058642;28;21012;-71
2022/11/29 06:49:26;;;;;;;86.07;34.57;;;8.60;99.90;;;;;;5051065;28;21212;-69
2022/11/29 06:52:06;;;;;;;71.40;36.33;;;8.60;99.90;;;;;;5060554;28;20475;-71
2022/11/29 06:54:49;;;;;;;83.80;33.13;;;8.70;99.90;;;;;;5058895;28;20503;-71
2022/11/29 06:57:22;;;;;;;85.77;32.83;;;8.70;99.90;;;;;;5060968;28;20699;-71
2022/11/29 07:00:02;;;;;;;77.80;31.20;;;8.80;99.90;;;;;;5058800;28;20470;-72
2022/11/29 07:02:41;;;;;;;87.03;30.53;;;8.70;99.90;;;;;;5054808;28;20468;-70
2022/11/29 07:05:16;;;;;;;66.40;30.70;;;8.70;99.90;;;;;;5051309;28;21060;-71
2022/11/29 07:07:43;;;;;;;65.60;30.40;;;8.80;99.90;;;;;;5054586;28;20525;-71
2022/11/29 07:10:16;;;;;;;73.17;30.70;;;8.70;99.90;;;;;;5060627;28;20478;-69
2022/11/29 07:12:43;;;;;;;72.10;33.80;;;8.70;99.90;;;;;;5056799;28;21094;-71
2022/11/29 07:15:14;;;;;;;68.00;31.17;;;8.80;99.90;;;;;;5054327;28;20459;-72
2022/11/29 07:17:50;;;;;;;78.80;32.53;;;8.70;99.90;;;;;;5058489;28;20875;-72
2022/11/29 07:20:26;;;;;;;66.10;32.00;;;8.80;99.90;;;;;;5061038;28;20459;-69
2022/11/29 07:23:02;;;;;;;81.30;33.17;;;8.80;99.90;;;;;;5060167;28;20853;-70
2022/11/29 07:25:41;;;;;;;75.90;32.57;;;8.80;99.90;;;;;;5053349;28;20984;-71
2022/11/29 07:28:20;;;;;;;71.77;31.20;;;8.90;99.90;;;;;;5054895;28;20490;-70
2022/11/29 07:30:56;;;;;;;69.10;30.83;;;8.90;99.90;;;;;;5062852;28;20467;-71
2022/11/29 07:33:30;;;;;;;72.23;30.73;;;8.90;99.90;;;;;;5066675;28;20496;-72
2022/11/29 07:36:06;;;;;;;87.10;31.30;;;8.90;99.90;;;;;;5052819;28;20476;-68
2022/11/29 07:38:45;;;;;;;82.00;31.53;;;8.90;99.90;;;;;;5058732;28;20482;-71
2022/11/29 07:41:21;;;;;;;79.40;31.83;;;8.90;99.90;;;;;;5055610;28;20456;-68
2022/11/29 07:43:56;;;;;;;73.57;31.47;;;8.80;99.90;;;;;;5053745;28;21351;-70
2022/11/29 07:46:24;;;;;;;73.97;31.17;;;8.70;99.90;;;;;;5060188;28;20487;-72
2022/11/29 07:48:51;;;;;;;83.57;33.80;;;8.70;99.90;;;;;;5056758;28;20462;-69
2022/11/29 07:51:19;;;;;;;78.50;33.27;;;8.70;99.90;;;;;;5065633;28;20459;-69
2022/11/29 07:53:46;;;;;;;75.27;32.93;;;8.60;99.90;;;;;;5061064;28;20942;-70
2022/11/29 07:56:15;;;;;;;90.83;33.93;;;8.60;99.90;;;;;;5059817;28;20857;-71
2022/11/29 07:58:42;;;;;;;93.33;34.10;;;8.60;99.90;;;;;;5062176;28;20478;-72
2022/11/29 08:01:09;;;;;;;82.43;34.40;;;8.70;99.90;;;;;;5062329;28;20459;-72
2022/11/29 08:03:36;;;;;;;91.63;32.80;;;8.80;99.90;;;;;;5059771;28;20454;-69
2022/11/29 08:06:04;;;;;;;87.70;30.57;;;8.80;99.90;;;;;;5067036;28;20494;-72
2022/11/29 08:08:33;;;;;;;82.00;33.97;;;8.80;99.90;;;;;;5062639;28;20984;-69
2022/11/29 08:11:00;;;;;;;105.60;38.87;;;8.90;99.90;;;;;;5062653;28;20984;-69
2022/11/29 08:13:27;;;;;;;104.23;34.50;;;8.80;99.90;;;;;;5057882;28;20455;-70
2022/11/29 08:15:54;;;;;;;94.83;34.40;;;8.80;99.90;;;;;;5057444;28;20478;-69
2022/11/29 08:18:21;;;;;;;97.03;34.30;;;8.90;99.90;;;;;;5061913;28;22345;-71
2022/11/29 08:20:48;;;;;;;85.77;35.50;;;8.80;99.90;;;;;;5066980;28;20455;-72
2022/11/29 08:23:15;;;;;;;96.73;34.27;;;8.70;99.90;;;;;;5053300;28;20463;-69
2022/11/29 08:25:44;;;;;;;92.47;32.37;;;8.70;99.90;;;;;;5058024;28;20459;-70
2022/11/29 08:28:11;;;;;;;96.23;35.33;;;8.70;99.90;;;;;;5055785;28;20447;-70
2022/11/29 08:30:38;;;;;;;90.73;32.10;;;8.80;99.90;;;;;;5059679;28;20466;-70
2022/11/29 08:33:05;;;;;;;105.17;34.80;;;8.80;99.90;;;;;;5054052;28;20475;-70
2022/11/29 08:35:34;;;;;;;85.87;33.53;;;8.70;99.90;;;;;;5057898;28;20477;-70
2022/11/29 08:38:02;;;;;;;110.77;35.13;;;8.70;99.90;;;;;;5058249;28;20501;-71
2022/11/29 08:40:29;;;;;;;104.97;33.17;;;8.60;99.90;;;;;;5051324;28;20464;-70
2022/11/29 08:42:58;;;;;;;93.27;33.27;;;8.50;99.90;;;;;;5048403;28;20473;-70
2022/11/29 08:45:25;;;;;;;87.97;33.07;;;8.40;99.90;;;;;;5059640;28;20821;-70
2022/11/29 08:47:52;;;;;;;91.00;33.03;;;8.50;99.90;;;;;;5056480;28;20587;-71
2022/11/29 08:50:19;;;;;;;75.47;31.80;;;8.60;99.90;;;;;;5054798;28;20454;-70
2022/11/29 08:55:34;;;;;;;76.03;30.77;;;8.60;99.90;;;;;;5051927;28;20463;-71
2022/11/29 08:58:06;;;;;;;60.50;28.37;;;8.80;99.90;;;;;;5056317;28;20494;-71
2022/11/29 09:00:34;;;;;;;76.67;30.03;;;8.90;99.90;;;;;;5048861;28;20551;-69
2022/11/29 09:05:43;;;;;;;81.83;30.23;;;8.70;99.90;;;;;;5040649;28;20473;-70
2022/11/29 09:08:10;;;;;;;65.03;28.23;;;8.80;99.90;;;;;;5040851;28;20547;-69
2022/11/29 09:10:38;;;;;;;79.00;33.07;;;8.70;99.90;;;;;;5032093;28;20476;-71
2022/11/29 09:13:06;;;;;;;92.37;32.07;;;8.70;99.90;;;;;;5041998;28;20455;-68
2022/11/29 09:15:33;;;;;;;93.17;34.30;;;8.70;99.90;;;;;;5036172;28;20487;-68
2022/11/29 09:18:01;;;;;;;100.13;34.63;;;8.80;99.90;;;;;;5043950;28;20487;-70
2022/11/29 09:20:28;;;;;;;85.47;34.97;;;8.80;99.90;;;;;;5037725;28;20560;-68
2022/11/29 09:22:55;;;;;;;77.47;36.37;;;8.80;99.90;;;;;;5034937;28;20874;-71
2022/11/29 09:25:22;;;;;;;89.07;34.70;;;8.90;99.90;;;;;;5039050;28;20550;-71
2022/11/29 09:27:48;;;;;;;111.27;39.10;;;9.00;99.90;;;;;;5037935;28;20872;-71
2022/11/29 09:30:17;;;;;;;107.97;41.27;;;9.10;99.90;;;;;;5033344;28;20461;-69
2022/11/29 09:32:45;;;;;;;104.57;42.80;;;9.10;99.90;;;;;;5038858;28;20464;-69
2022/11/29 09:35:12;;;;;;;101.63;42.37;;;9.10;99.90;;;;;;5041181;28;20491;-71
2022/11/29 09:37:42;;;;;;;102.40;42.57;;;8.90;99.90;;;;;;5038507;28;20506;-70
2022/11/29 09:40:15;;;;;;;109.97;42.77;;;9.00;99.90;;;;;;5035405;28;20530;-71
2022/11/29 09:42:52;;;;;;;109.87;43.53;;;9.10;99.90;;;;;;5032873;28;20468;-70
2022/11/29 09:45:28;;;;;;;97.07;41.90;;;9.10;99.90;;;;;;5034466;28;20513;-69
2022/11/29 09:48:14;;;;;;;117.07;44.57;;;9.00;99.90;;;;;;5037358;28;20566;-69
2022/11/29 09:50:47;;;;;;;110.93;42.63;;;9.10;99.90;;;;;;5027805;28;20471;-71
2022/11/29 09:53:31;;;;;;;122.80;45.93;;;9.10;99.90;;;;;;5037035;28;20958;-70
2022/11/29 09:56:08;;;;;;;112.17;48.17;;;9.10;99.90;;;;;;5032399;28;20463;-69
2022/11/29 09:58:43;;;;;;;127.03;47.07;;;9.00;99.90;;;;;;5030997;28;20480;-70
2022/11/29 10:01:20;;;;;;;90.60;42.10;;;8.90;99.90;;;;;;5050148;28;20550;-70
2022/11/29 10:03:51;;;;;;;111.97;42.77;;;9.00;99.90;;;;;;5039648;28;20464;-71
2022/11/29 10:06:23;;;;;;;98.63;41.67;;;8.80;99.90;;;;;;5058624;28;20577;-69
2022/11/29 10:08:55;;;;;;;98.57;37.37;;;8.80;99.90;;;;;;5061692;28;20470;-70
2022/11/29 10:11:27;;;;;;;98.87;40.33;;;8.90;99.90;;;;;;5065116;28;20491;-70
2022/11/29 10:13:58;;;;;;;84.97;36.70;;;9.20;99.90;;;;;;5058364;28;20462;-71
2022/11/29 10:16:39;;;;;;;84.80;38.43;;;9.30;99.90;;;;;;5066933;28;20463;-70
2022/11/29 10:19:14;;;;;;;83.70;35.30;;;9.40;99.90;;;;;;5059501;28;20455;-71
2022/11/29 10:21:48;;;;;;;83.53;35.77;;;9.50;99.90;;;;;;5061072;28;20536;-69
2022/11/29 10:24:21;;;;;;;72.10;32.60;;;9.60;99.90;;;;;;5063610;28;20461;-71
2022/11/29 10:26:47;;;;;;;75.30;34.90;;;9.50;99.90;;;;;;5053866;28;20453;-71
2022/11/29 10:29:16;;;;;;;81.13;34.40;;;9.60;99.90;;;;;;5062821;28;20477;-69
2022/11/29 10:31:48;;;;;;;74.13;34.87;;;9.70;99.90;;;;;;5057926;28;20465;-71
2022/11/29 10:34:17;;;;;;;73.53;35.93;;;9.70;99.90;;;;;;5055652;28;20521;-68
2022/11/29 10:36:47;;;;;;;79.73;33.67;;;9.70;99.90;;;;;;5062814;28;20794;-68
2022/11/29 10:39:21;;;;;;;70.60;32.50;;;9.70;99.90;;;;;;5059891;28;20958;-68
2022/11/29 10:41:52;;;;;;;64.70;32.13;;;9.60;99.90;;;;;;5061183;28;21021;-69
2022/11/29 10:44:20;;;;;;;70.50;31.70;;;9.60;99.90;;;;;;5059363;28;20462;-69
2022/11/29 10:46:49;;;;;;;57.80;31.67;;;9.60;99.90;;;;;;5063146;28;20518;-70
2022/11/29 10:49:19;;;;;;;60.27;29.80;;;9.70;99.90;;;;;;5060062;28;20459;-68
2022/11/29 10:51:46;;;;;;;69.23;32.33;;;9.80;99.90;;;;;;5059516;28;20569;-69
2022/11/29 10:54:39;;;;;;;71.33;33.43;;;9.70;99.90;;;;;;5061048;28;22445;-68
2022/11/29 10:57:13;;;;;;;79.83;35.37;;;9.80;99.90;;;;;;5075008;28;20490;-71
2022/11/29 10:59:40;;;;;;;69.00;32.67;;;9.90;99.90;;;;;;5062300;28;20574;-68
2022/11/29 11:02:18;;;;;;;64.83;32.53;;;9.90;99.90;;;;;;5056366;28;20992;-70
2022/11/29 11:04:47;;;;;;;86.27;35.60;;;9.80;99.90;;;;;;5058253;28;20978;-71
2022/11/29 11:07:24;;;;;;;85.63;36.50;;;9.80;99.90;;;;;;5059506;28;20828;-71
2022/11/29 11:09:55;;;;;;;91.70;38.17;;;10.00;99.90;;;;;;5059368;28;20468;-71
2022/11/29 11:12:25;;;;;;;87.27;39.20;;;10.20;99.90;;;;;;5064858;28;20486;-71
2022/11/29 11:15:12;;;;;;;81.10;38.10;;;10.20;99.90;;;;;;5057371;28;20664;-71
2022/11/29 11:17:54;;;;;;;89.03;39.60;;;10.40;99.90;;;;;;5056203;28;20498;-68
2022/11/29 11:20:23;;;;;;;82.03;39.00;;;10.60;99.90;;;;;;5058802;28;20471;-68
2022/11/29 11:22:57;;;;;;;88.77;43.23;;;10.40;99.90;;;;;;5061764;28;20487;-69
2022/11/29 11:25:27;;;;;;;91.23;41.17;;;10.30;99.90;;;;;;5063469;28;20867;-68
2022/11/29 11:27:55;;;;;;;100.27;45.70;;;10.20;99.90;;;;;;5064597;28;20467;-69
2022/11/29 11:30:24;;;;;;;82.63;40.87;;;10.10;99.90;;;;;;5056786;28;20466;-69
2022/11/29 11:33:08;;;;;;;81.03;43.07;;;10.20;99.90;;;;;;5056041;28;20478;-68
2022/11/29 11:35:36;;;;;;;77.40;39.27;;;10.10;99.90;;;;;;5053959;28;20981;-70
2022/11/29 11:38:03;;;;;;;81.13;37.90;;;10.10;99.90;;;;;;5058297;28;20904;-68
2022/11/29 11:40:31;;;;;;;59.00;34.67;;;10.20;99.90;;;;;;5056240;28;20954;-70
2022/11/29 11:42:59;;;;;;;95.93;38.47;;;10.20;99.90;;;;;;5056525;28;20456;-71
2022/11/29 11:45:31;;;;;;;71.30;36.00;;;10.20;99.90;;;;;;5062988;28;20827;-69
2022/11/29 11:48:01;;;;;;;64.73;34.03;;;10.10;99.90;;;;;;5057496;28;21048;-68
2022/11/29 11:50:32;;;;;;;68.13;32.73;;;10.10;99.90;;;;;;5055305;28;20826;-71
2022/11/29 11:53:03;;;;;;;59.97;33.80;;;10.10;99.90;;;;;;5060068;28;20950;-69
2022/11/29 11:55:38;;;;;;;58.47;32.33;;;10.00;99.90;;;;;;5058937;28;20707;-69
2022/11/29 11:58:15;;;;;;;64.47;33.73;;;10.00;99.90;;;;;;5058282;28;20685;-68
2022/11/29 12:00:45;;;;;;;59.80;31.77;;;9.90;99.90;;;;;;5056187;28;20855;-69
2022/11/29 12:03:32;;;;;;;60.13;31.90;;;9.80;99.90;;;;;;5055714;28;20542;-70
2022/11/29 12:06:17;;;;;;;50.97;30.03;;;9.80;99.90;;;;;;5059359;28;20874;-70
2022/11/29 12:08:46;;;;;;;42.43;27.60;;;9.70;99.90;;;;;;5058264;28;20472;-70
2022/11/29 12:11:17;;;;;;;52.93;26.77;;;9.90;99.90;;;;;;5059391;28;21214;-69
2022/11/29 12:13:48;;;;;;;43.97;25.80;;;10.00;99.90;;;;;;5060868;28;20455;-70
2022/11/29 12:16:26;;;;;;;43.23;25.10;;;10.00;99.90;;;;;;5062521;28;20466;-69
2022/11/29 12:18:57;;;;;;;39.33;24.53;;;10.00;99.90;;;;;;5055503;28;20487;-68
2022/11/29 12:21:29;;;;;;;45.83;23.63;;;10.00;99.90;;;;;;5060050;28;20743;-71
2022/11/29 12:24:02;;;;;;;49.17;29.70;;;9.80;99.90;;;;;;5057008;28;20823;-69
2022/11/29 12:26:32;;;;;;;45.80;27.00;;;9.70;99.90;;;;;;5057163;28;20545;-69
2022/11/29 12:28:59;;;;;;;52.53;28.10;;;9.80;99.90;;;;;;5061705;28;20733;-68
2022/11/29 12:31:41;;;;;;;55.77;28.93;;;9.70;99.90;;;;;;5057294;28;20474;-69
2022/11/29 12:34:22;;;;;;;49.10;29.23;;;9.70;99.90;;;;;;5055597;28;20466;-69
2022/11/29 12:36:56;;;;;;;58.57;30.10;;;9.60;99.90;;;;;;5060868;28;20884;-69
2022/11/29 12:39:48;;;;;;;68.90;30.37;;;9.60;99.90;;;;;;5061168;28;20712;-72
2022/11/29 12:42:25;;;;;;;64.77;31.77;;;9.70;99.90;;;;;;5060684;28;20542;-69
2022/11/29 12:45:00;;;;;;;60.17;30.10;;;9.80;99.90;;;;;;5056117;28;20471;-69
2022/11/29 12:47:41;;;;;;;67.53;30.80;;;9.70;99.90;;;;;;5064096;28;20528;-69
2022/11/29 12:50:24;;;;;;;49.37;29.07;;;9.70;99.90;;;;;;5056728;28;20868;-69
2022/11/29 12:53:05;;;;;;;53.57;29.03;;;9.80;99.90;;;;;;5058695;28;20472;-70
2022/11/29 12:55:47;;;;;;;70.03;31.30;;;9.70;99.90;;;;;;5061159;28;20508;-71
2022/11/29 12:58:21;;;;;;;59.67;28.83;;;9.80;99.90;;;;;;5059716;28;20483;-69
2022/11/29 13:01:08;;;;;;;70.03;30.10;;;9.80;99.90;;;;;;5054035;28;20474;-69
2022/11/29 13:03:44;;;;;;;55.90;28.93;;;9.80;99.90;;;;;;5060733;28;20458;-70
2022/11/29 13:06:22;;;;;;;49.57;28.57;;;9.80;99.90;;;;;;5058641;28;20495;-69
2022/11/29 13:09:19;;;;;;;50.57;27.80;;;9.70;99.90;;;;;;5052400;28;21161;-69
2022/11/29 13:11:53;;;;;;;48.23;28.20;;;9.80;99.90;;;;;;5059135;28;20523;-71
2022/11/29 13:14:28;;;;;;;55.70;26.53;;;9.60;99.90;;;;;;5055901;28;20456;-71
2022/11/29 13:16:59;;;;;;;54.03;29.57;;;9.60;99.90;;;;;;5065455;28;20461;-70
2022/11/29 13:19:34;;;;;;;55.73;29.07;;;9.60;99.90;;;;;;5056531;28;20495;-71